Chignik, Alaska
Current Conditions -  °F | °C
As of 7:54 AM on Thursday 30 Oct 2014 (Local Time) from PAKN Reporting Station
Broken Clouds Broken Clouds  
Wind Chill: 16°   Ceiling: 2200
Heat Index: 16°   Visibility: 10mi
Dew Point: 13°   Wind: 3mph
Humidity: 88%   Direction: 360°N
Pressure: 29.8"   Gusts: NA
Location:  58.11°N, 156°W
Report Text: PAKN 301554Z 36003KT 10SM BKN022 M09/M11 A2980 RMK AO2 SLP091 T10891106 $
Loading
Personal Weather Stations






























Interactive Weather Map
Tropical Storm Tracking
New forecast layout! Learn more

10-Day Weather Forecast

Advertisements
Track Severe Weather on mobile